Lebanon Junction, KY (40150)

11:38 PM EST on January 27, 2015 (GMT -0500)
Hwy 245 & I65 - Clermont, KY | Change Station
CLOSE
Current Station
Personal Weather Station
Location: Shepherdsville, KY
Elevation: 558 ft
Nearby Weather Stations

Elev 558 ft 37.91 °N, 85.68 °W | Updated 18 seconds ago

Partly Cloudy
Partly Cloudy
24.6 °F
Feels Like 25 °F
N
0.0
Wind Variable Wind from NE
Gusts 0.0 mph

Today
High -- | Low -- °F
--% Chance of Precip.
Yesterday
High -- | Low -- °F
Precip. -- in
7:51 AM 6:00 PM
First Quarter, 61% visible
Pressure 30.22 in
Visibility 10.0 miles
Clouds Scattered Clouds 2600 ft
Windchill 25 °F
Dew Point 20 °F
Humidity 84%
Rainfall 0.00 in
Snow Depth Not available.
UV 0.0 out of 12
Pollen .10 out of 12
Air Quality Not available.
Flu Activity Not available.
SPECI KFTK 280403Z AUTO 04002KT 10SM SCT026 M03/M10 A3022 RMK AO2

More Conditions Fewer Conditions

Pressure 30.22 in
Visibility 10.0 miles
Clouds Scattered Clouds 2600 ft
Windchill 25 °F
Dew Point 20 °F
Humidity 84%
Rainfall 0.00 in
Snow Depth Not available.
UV 0.0 out of 12
Pollen .10 out of 12
Air Quality Not available.
Flu Activity Not available.
SPECI KFTK 280403Z AUTO 04002KT 10SM SCT026 M03/M10 A3022 RMK AO2

More Conditions Fewer Conditions

10-Day Weather Forecast

Almanac

Astronomy

Jan. 27, 2015 Rise Set
Actual Time
Civil Twilight
Nautical Twilight
Astronomical Twilight
Moon
Length of Visible Light
Length of Day
Tomorrow will be .
, % of the Moon is Illuminated

Today's Extremes

State Highs State Lows

Community

WunderPhotos

Upload Photos

1,791,102 photos uploaded!

WunderBlogs® & News

Nearby

Air Quality

  Air Quality AQ Index Pollutant
Not available.

Snow Depth

Station Depth Elevation

Earthquake Activity

City Distance Mag. Time & Date
Minimum magnitude displayed is 2.5.

Coastal Water Temperatures

Place Temperature

Nearby Weather Stations